createdAt,value
2024-03-05T00:00:16.316Z,37.30
2024-03-05T00:02:45.003Z,32.97
2024-03-05T00:05:15.223Z,37.33
2024-03-05T00:07:43.525Z,32.60
2024-03-05T00:10:12.658Z,34.93
2024-03-05T00:12:40.393Z,31.77
2024-03-05T00:15:08.791Z,36.80
2024-03-05T00:17:37.994Z,31.47
2024-03-05T00:20:11.182Z,30.30
2024-03-05T00:22:38.812Z,30.53
2024-03-05T00:25:08.985Z,28.97
2024-03-05T00:27:36.662Z,25.77
2024-03-05T00:30:05.355Z,28.23
2024-03-05T00:32:33.477Z,30.97
2024-03-05T00:35:02.494Z,31.50
2024-03-05T00:37:30.094Z,31.90
2024-03-05T00:39:57.839Z,34.10
2024-03-05T00:42:25.488Z,31.93
2024-03-05T00:44:53.102Z,32.10
2024-03-05T00:47:20.722Z,28.53
2024-03-05T00:49:48.419Z,32.27
2024-03-05T00:52:17.436Z,26.97
2024-03-05T00:54:46.182Z,27.37
2024-03-05T00:57:13.948Z,29.63
2024-03-05T00:59:41.522Z,32.10
2024-03-05T01:02:09.284Z,30.07
2024-03-05T01:04:36.984Z,33.50
2024-03-05T01:07:04.635Z,32.10
2024-03-05T01:09:33.563Z,29.67
2024-03-05T01:12:01.227Z,35.30
2024-03-05T01:14:29.021Z,35.73
2024-03-05T01:16:56.717Z,33.93
2024-03-05T01:19:24.406Z,38.47
2024-03-05T01:21:52.009Z,39.43
2024-03-05T01:24:19.662Z,42.63
2024-03-05T01:26:48.781Z,38.03
2024-03-05T01:29:18.542Z,32.37
2024-03-05T01:31:47.009Z,33.30
2024-03-05T01:34:14.662Z,29.10
2024-03-05T01:36:42.338Z,35.57
2024-03-05T01:39:10.709Z,36.50
2024-03-05T01:41:38.389Z,31.90
2024-03-05T01:44:07.479Z,29.83
2024-03-05T01:46:35.418Z,32.20
2024-03-05T01:49:03.251Z,35.43
2024-03-05T01:51:31.846Z,30.07
2024-03-05T01:53:59.799Z,28.60
2024-03-05T01:56:27.659Z,34.23
2024-03-05T01:58:56.562Z,29.83
2024-03-05T02:01:25.582Z,34.10
2024-03-05T02:03:53.776Z,34.27
2024-03-05T02:06:21.692Z,27.37
2024-03-05T02:08:49.417Z,28.97
2024-03-05T02:11:17.284Z,31.33
2024-03-05T02:13:45.551Z,32.70
2024-03-05T02:16:13.576Z,31.63
2024-03-05T02:18:42.679Z,30.70
2024-03-05T02:21:20.569Z,31.20
2024-03-05T02:23:48.418Z,23.37
2024-03-05T02:26:16.154Z,26.20
2024-03-05T02:28:43.829Z,27.13
2024-03-05T02:31:11.509Z,27.43
2024-03-05T02:33:39.162Z,27.27
2024-03-05T02:36:08.075Z,27.60
2024-03-05T02:38:37.025Z,29.33
2024-03-05T02:41:05.504Z,27.90
2024-03-05T02:43:33.182Z,31.60
2024-03-05T02:46:00.776Z,27.70
2024-03-05T02:48:28.535Z,27.53
2024-03-05T02:50:56.310Z,23.83
2024-03-05T02:53:25.364Z,26.13
2024-03-05T02:55:54.365Z,26.57
2024-03-05T02:58:22.047Z,25.03
2024-03-05T03:00:49.873Z,26.93
2024-03-05T03:03:17.509Z,26.60
2024-03-05T03:05:46.682Z,23.27
2024-03-05T03:08:14.322Z,28.10
2024-03-05T03:10:42.110Z,24.40
2024-03-05T03:13:11.151Z,22.93
2024-03-05T03:15:38.902Z,22.33
2024-03-05T03:18:07.656Z,23.10
2024-03-05T03:20:35.349Z,20.00
2024-03-05T03:23:03.390Z,21.07
2024-03-05T03:25:33.982Z,21.90
2024-03-05T03:28:03.402Z,21.13
2024-03-05T03:30:32.707Z,27.83
2024-03-05T03:33:00.377Z,27.13
2024-03-05T03:35:28.228Z,27.53
2024-03-05T03:37:56.136Z,24.40
2024-03-05T03:40:24.226Z,20.87
2024-03-05T03:42:53.623Z,22.50
2024-03-05T03:45:21.661Z,24.07
2024-03-05T03:47:51.598Z,27.23
2024-03-05T03:50:19.761Z,27.83
2024-03-05T03:52:47.532Z,28.00
2024-03-05T03:55:17.078Z,28.23
2024-03-05T03:57:45.766Z,25.47
2024-03-05T04:00:18.492Z,24.57
2024-03-05T04:02:47.840Z,24.23
2024-03-05T04:05:17.391Z,28.47
2024-03-05T04:07:45.288Z,33.23
2024-03-05T04:10:13.441Z,31.20
2024-03-05T04:12:41.276Z,26.17
2024-03-05T04:15:10.512Z,26.27
2024-03-05T04:17:39.133Z,25.73
2024-03-05T04:20:10.615Z,29.97
2024-03-05T04:22:41.798Z,31.37
2024-03-05T04:25:10.287Z,31.23
2024-03-05T04:27:43.638Z,36.57
2024-03-05T04:30:14.168Z,39.10
2024-03-05T04:32:57.919Z,36.70
2024-03-05T04:35:29.581Z,35.23
2024-03-05T04:37:59.980Z,38.50
2024-03-05T04:40:28.297Z,36.47
2024-03-05T04:42:57.272Z,34.37
2024-03-05T04:45:26.397Z,33.63
2024-03-05T04:47:54.410Z,38.83
2024-03-05T04:50:22.868Z,42.77
2024-03-05T04:52:53.063Z,39.90
2024-03-05T04:55:23.129Z,35.93
2024-03-05T04:57:52.545Z,37.33
2024-03-05T05:00:25.391Z,40.43
2024-03-05T05:02:54.213Z,36.00
2024-03-05T05:05:26.457Z,41.67
2024-03-05T05:07:57.499Z,39.43
2024-03-05T05:10:28.255Z,39.60
2024-03-05T05:12:56.411Z,37.07
2024-03-05T05:15:24.882Z,34.13
2024-03-05T05:17:52.746Z,39.03
2024-03-05T05:20:21.174Z,37.47
2024-03-05T05:22:49.145Z,41.07
2024-03-05T05:25:18.248Z,38.63
2024-03-05T05:27:49.668Z,49.50
2024-03-05T05:30:21.641Z,36.60
2024-03-05T05:32:50.149Z,38.90
2024-03-05T05:35:18.419Z,37.27
2024-03-05T05:37:46.947Z,45.00
2024-03-05T05:40:20.750Z,41.93
2024-03-05T05:42:52.049Z,43.80
2024-03-05T05:45:23.351Z,35.90
2024-03-05T05:47:52.783Z,37.47
2024-03-05T05:50:23.871Z,39.87
2024-03-05T05:52:53.958Z,41.87
2024-03-05T05:55:22.136Z,58.93
2024-03-05T05:57:51.995Z,83.40
2024-03-05T06:00:33.900Z,73.33
2024-03-05T06:03:03.309Z,52.23
2024-03-05T06:05:36.006Z,57.93
2024-03-05T06:08:04.969Z,67.23
2024-03-05T06:10:33.375Z,46.33
2024-03-05T06:13:02.955Z,82.07
2024-03-05T06:15:31.563Z,64.07
2024-03-05T06:18:01.383Z,67.80
2024-03-05T06:20:29.557Z,54.17
2024-03-05T06:22:58.265Z,47.03
2024-03-05T06:25:26.225Z,46.10
2024-03-05T06:27:54.212Z,40.40
2024-03-05T06:30:24.111Z,40.80
2024-03-05T06:32:54.194Z,39.13
2024-03-05T06:35:24.917Z,38.57
2024-03-05T06:37:55.033Z,40.73
2024-03-05T06:40:24.903Z,37.63
2024-03-05T06:43:05.421Z,43.60
2024-03-05T06:45:36.914Z,35.00
2024-03-05T06:50:39.740Z,39.90
2024-03-05T06:53:25.595Z,47.17
2024-03-05T06:56:11.047Z,43.30
2024-03-05T06:58:42.909Z,39.37
2024-03-05T07:01:12.964Z,45.27
2024-03-05T07:03:41.632Z,37.03
2024-03-05T07:06:11.545Z,37.43
2024-03-05T07:08:40.509Z,45.37
2024-03-05T07:11:10.947Z,40.63
2024-03-05T07:13:42.248Z,43.90
2024-03-05T07:16:15.313Z,41.27
2024-03-05T07:18:43.206Z,40.03
2024-03-05T07:21:11.675Z,43.17
2024-03-05T07:23:41.277Z,41.23
2024-03-05T07:26:09.668Z,38.60
2024-03-05T07:28:38.663Z,38.13
2024-03-05T07:31:08.237Z,37.60
2024-03-05T07:33:38.717Z,36.30
2024-03-05T07:36:07.585Z,34.03
2024-03-05T07:38:35.572Z,38.90
2024-03-05T07:41:13.302Z,37.07
2024-03-05T07:43:45.731Z,44.73
2024-03-05T07:46:13.665Z,37.23
2024-03-05T07:48:43.395Z,34.53
2024-03-05T07:51:12.944Z,44.10
2024-03-05T07:53:42.739Z,40.73
2024-03-05T07:56:10.917Z,40.33
2024-03-05T07:58:38.671Z,41.33
2024-03-05T08:01:08.475Z,36.27
2024-03-05T08:03:36.484Z,40.93
2024-03-05T08:06:06.508Z,35.57
2024-03-05T08:08:34.766Z,37.50
2024-03-05T08:11:02.962Z,38.40
2024-03-05T08:13:30.968Z,42.17
2024-03-05T08:15:58.697Z,36.53
2024-03-05T08:18:26.781Z,39.90
2024-03-05T08:20:54.457Z,44.33
2024-03-05T08:23:24.074Z,44.40
2024-03-05T08:25:52.998Z,41.30
2024-03-05T08:28:20.950Z,39.13
2024-03-05T08:30:49.336Z,48.17
2024-03-05T08:33:21.260Z,40.03
2024-03-05T08:35:49.540Z,41.67
2024-03-05T08:38:17.551Z,44.93
2024-03-05T08:40:48.935Z,42.50
2024-03-05T08:43:17.217Z,43.27
2024-03-05T08:45:45.059Z,43.93
2024-03-05T08:48:13.056Z,48.50
2024-03-05T08:50:40.966Z,47.60
2024-03-05T08:53:09.557Z,45.50
2024-03-05T08:55:37.375Z,46.27
2024-03-05T08:58:07.467Z,47.30
2024-03-05T09:00:42.396Z,43.97
2024-03-05T09:03:13.675Z,45.17
2024-03-05T09:05:44.285Z,48.30
2024-03-05T09:08:15.170Z,56.77
2024-03-05T09:10:45.950Z,63.60
2024-03-05T09:13:15.861Z,59.33
2024-03-05T09:15:44.675Z,92.10
2024-03-05T09:18:15.867Z,68.97
2024-03-05T09:20:44.719Z,59.10
2024-03-05T09:23:12.828Z,63.87
2024-03-05T09:25:43.827Z,69.27
2024-03-05T09:28:12.808Z,65.97
2024-03-05T09:30:42.412Z,66.30
2024-03-05T09:33:11.955Z,68.93
2024-03-05T09:35:40.919Z,59.00
2024-03-05T09:38:09.852Z,57.17
2024-03-05T09:40:40.368Z,51.23
2024-03-05T09:43:09.369Z,54.37
2024-03-05T09:45:39.264Z,57.00
2024-03-05T09:48:10.349Z,54.17
2024-03-05T09:50:39.153Z,60.20
2024-03-05T09:53:07.419Z,56.73
2024-03-05T09:55:35.407Z,55.97
2024-03-05T09:58:08.106Z,58.13
2024-03-05T10:00:38.621Z,56.23
2024-03-05T10:03:10.337Z,57.60
2024-03-05T10:05:39.139Z,66.90
2024-03-05T10:08:08.219Z,62.40
2024-03-05T10:10:38.834Z,73.30
2024-03-05T10:13:07.823Z,77.97
2024-03-05T10:15:38.640Z,64.37
2024-03-05T10:18:08.969Z,72.83
2024-03-05T10:20:39.228Z,75.93
2024-03-05T10:23:09.342Z,79.83
2024-03-05T10:25:37.808Z,76.30
2024-03-05T10:28:09.821Z,95.03
2024-03-05T10:30:39.256Z,70.40
2024-03-05T10:33:09.093Z,85.97
2024-03-05T10:35:43.101Z,78.23
2024-03-05T10:38:15.934Z,78.93
2024-03-05T10:40:46.037Z,79.43
2024-03-05T10:43:17.059Z,83.83
2024-03-05T10:45:46.264Z,75.00
2024-03-05T10:48:16.447Z,75.07
2024-03-05T10:50:50.462Z,79.03
2024-03-05T10:53:18.760Z,80.87
2024-03-05T10:55:48.699Z,74.40
2024-03-05T10:58:38.201Z,72.87
2024-03-05T11:01:08.154Z,64.80
2024-03-05T11:03:40.440Z,70.03
2024-03-05T11:06:11.422Z,67.40
2024-03-05T11:08:39.273Z,59.97
2024-03-05T11:11:09.974Z,65.07
2024-03-05T11:13:38.516Z,60.37
2024-03-05T11:16:08.111Z,63.23
2024-03-05T11:18:37.060Z,67.63
2024-03-05T11:21:10.051Z,60.10
2024-03-05T11:23:43.341Z,62.43
2024-03-05T11:26:19.166Z,64.07
2024-03-05T11:28:47.111Z,63.13
2024-03-05T11:31:19.336Z,66.20
2024-03-05T11:33:53.108Z,63.73
2024-03-05T11:36:23.119Z,69.07
2024-03-05T11:38:59.063Z,67.40
2024-03-05T11:41:27.122Z,72.80
2024-03-05T11:43:55.021Z,68.53
2024-03-05T11:46:47.510Z,76.77
2024-03-05T11:49:16.566Z,68.53
2024-03-05T11:51:45.855Z,71.90
2024-03-05T11:54:16.138Z,71.17
2024-03-05T11:56:45.466Z,70.07
2024-03-05T11:59:16.628Z,71.70
2024-03-05T12:01:45.192Z,73.23
2024-03-05T12:04:13.392Z,77.10
2024-03-05T12:06:44.767Z,66.93
2024-03-05T12:09:19.952Z,73.83
2024-03-05T12:12:05.662Z,58.57
2024-03-05T12:14:33.990Z,70.30
2024-03-05T12:17:05.139Z,73.10
2024-03-05T12:19:33.344Z,64.07
2024-03-05T12:22:02.337Z,61.87
2024-03-05T12:24:32.175Z,60.20
2024-03-05T12:27:00.762Z,45.57
2024-03-05T12:29:37.803Z,37.97
2024-03-05T12:32:06.741Z,34.53
2024-03-05T12:34:35.441Z,28.33
2024-03-05T12:37:03.766Z,23.20
2024-03-05T12:39:32.860Z,24.40
2024-03-05T12:42:02.321Z,21.70
2024-03-05T12:44:31.610Z,20.00
2024-03-05T12:47:17.783Z,21.73
2024-03-05T12:49:47.748Z,22.27
2024-03-05T12:52:19.706Z,17.10
2024-03-05T12:54:58.173Z,19.23
2024-03-05T12:57:26.294Z,17.73
2024-03-05T12:59:54.928Z,16.23
2024-03-05T13:02:22.837Z,15.47
2024-03-05T13:04:50.604Z,14.17
2024-03-05T13:07:18.355Z,16.57
2024-03-05T13:09:46.024Z,15.00
2024-03-05T13:12:15.147Z,17.80
2024-03-05T13:14:43.774Z,17.67
2024-03-05T13:17:12.048Z,17.27
2024-03-05T13:19:39.922Z,15.70
2024-03-05T13:22:07.731Z,14.73
2024-03-05T13:24:35.760Z,16.80
2024-03-05T13:27:04.270Z,15.40
2024-03-05T13:29:33.735Z,13.17
2024-03-05T13:32:01.639Z,16.77
2024-03-05T13:34:29.392Z,13.70
2024-03-05T13:36:57.186Z,14.53
2024-03-05T13:39:24.848Z,13.93
2024-03-05T13:41:54.329Z,14.23
2024-03-05T13:44:24.483Z,14.43
2024-03-05T13:46:54.117Z,14.67
2024-03-05T13:49:25.068Z,11.13
2024-03-05T13:51:54.714Z,12.33
2024-03-05T13:54:22.896Z,14.80
2024-03-05T13:56:52.040Z,6.90
2024-03-05T13:59:21.090Z,6.03
2024-03-05T14:01:50.390Z,26.23
2024-03-05T14:04:21.688Z,3.30
2024-03-05T14:06:50.747Z,6.53
2024-03-05T14:09:21.301Z,3.00
2024-03-05T14:11:49.127Z,2.83
2024-03-05T14:14:21.554Z,3.80
2024-03-05T14:16:54.952Z,4.97
2024-03-05T14:19:25.270Z,2.93
2024-03-05T14:22:00.685Z,3.50
2024-03-05T14:24:29.928Z,3.00
2024-03-05T14:26:58.315Z,2.33
2024-03-05T14:29:29.390Z,3.37
2024-03-05T14:31:58.610Z,2.33
2024-03-05T14:34:33.689Z,3.73
2024-03-05T14:37:02.248Z,2.43
2024-03-05T14:39:33.099Z,4.03
2024-03-05T14:42:07.599Z,3.03
2024-03-05T14:44:40.824Z,3.30
2024-03-05T14:47:12.072Z,4.33
2024-03-05T14:49:56.740Z,3.17
2024-03-05T14:52:27.084Z,2.80
2024-03-05T14:54:58.482Z,4.10
2024-03-05T14:57:28.168Z,3.07
2024-03-05T15:00:02.665Z,3.70
2024-03-05T15:02:31.507Z,4.53
2024-03-05T15:05:02.168Z,4.23
2024-03-05T15:07:30.001Z,3.70
2024-03-05T15:09:58.894Z,3.07
2024-03-05T15:12:26.996Z,3.17
2024-03-05T15:14:55.104Z,4.03
2024-03-05T15:17:22.998Z,3.93
2024-03-05T15:19:50.984Z,4.73
2024-03-05T15:22:31.046Z,5.17
2024-03-05T15:24:59.178Z,2.90
2024-03-05T15:27:27.358Z,7.30
2024-03-05T15:32:39.209Z,2.47
2024-03-05T15:35:08.319Z,2.80
2024-03-05T15:37:37.609Z,3.20
2024-03-05T15:40:16.365Z,2.60
2024-03-05T15:42:45.684Z,2.57
2024-03-05T15:45:13.608Z,2.63
2024-03-05T15:47:42.236Z,2.80
2024-03-05T15:50:13.606Z,2.60
2024-03-05T15:52:42.841Z,2.90
2024-03-05T15:55:10.861Z,3.70
2024-03-05T15:57:59.137Z,3.40
2024-03-05T16:00:31.002Z,5.00
2024-03-05T16:03:05.479Z,4.20
2024-03-05T16:05:43.017Z,3.03
2024-03-05T16:08:22.110Z,2.77
2024-03-05T16:10:50.507Z,3.00
2024-03-05T16:13:18.995Z,3.73
2024-03-05T16:15:47.175Z,4.40
2024-03-05T16:18:15.753Z,2.30
2024-03-05T16:20:44.854Z,2.37
2024-03-05T16:23:12.652Z,2.40
2024-03-05T16:25:45.397Z,3.37
2024-03-05T16:28:14.794Z,5.53
2024-03-05T16:30:43.407Z,2.27
2024-03-05T16:33:11.971Z,3.20
2024-03-05T16:35:40.252Z,3.07
2024-03-05T16:38:08.743Z,3.10
2024-03-05T16:40:39.559Z,2.30
2024-03-05T16:43:11.059Z,2.20
2024-03-05T16:45:39.645Z,3.53
2024-03-05T16:48:10.634Z,3.20
2024-03-05T16:50:40.287Z,2.90
2024-03-05T16:53:10.381Z,2.53
2024-03-05T16:55:39.511Z,4.47
2024-03-05T16:58:12.523Z,2.20
2024-03-05T17:00:51.361Z,5.53
2024-03-05T17:03:20.305Z,2.33
2024-03-05T17:05:51.782Z,2.40
2024-03-05T17:08:21.790Z,2.20
2024-03-05T17:10:50.504Z,2.80
2024-03-05T17:13:22.957Z,2.00
2024-03-05T17:15:59.258Z,1.80
2024-03-05T17:18:33.641Z,3.17
2024-03-05T17:21:05.823Z,3.33
2024-03-05T17:23:49.159Z,2.20
2024-03-05T17:26:19.441Z,3.00
2024-03-05T17:28:47.407Z,2.30
2024-03-05T17:31:20.501Z,2.43
2024-03-05T17:33:49.167Z,2.30
2024-03-05T17:36:19.568Z,2.93
2024-03-05T17:38:47.366Z,3.10
2024-03-05T17:41:27.942Z,6.07
2024-03-05T17:44:20.510Z,3.13
2024-03-05T17:47:02.321Z,3.27
2024-03-05T17:49:34.742Z,2.77
2024-03-05T17:52:14.658Z,3.70
2024-03-05T17:55:09.291Z,3.23
2024-03-05T17:57:38.645Z,7.27
2024-03-05T18:00:21.911Z,5.60
2024-03-05T18:02:52.007Z,4.97
2024-03-05T18:05:20.537Z,3.07
2024-03-05T18:07:51.238Z,2.47
2024-03-05T18:10:22.943Z,2.30
2024-03-05T18:12:51.533Z,2.33
2024-03-05T18:15:21.595Z,3.50
2024-03-05T18:18:03.589Z,2.40
2024-03-05T18:20:33.059Z,3.07
2024-03-05T18:23:06.678Z,3.37
2024-03-05T18:25:48.016Z,4.03
2024-03-05T18:28:33.522Z,3.60
2024-03-05T18:31:03.688Z,7.33
2024-03-05T18:33:36.662Z,3.93
2024-03-05T18:36:05.803Z,4.23
2024-03-05T18:38:33.736Z,4.27
2024-03-05T18:41:03.472Z,5.33
2024-03-05T18:43:31.945Z,5.87
2024-03-05T18:46:02.034Z,3.63
2024-03-05T18:48:44.096Z,17.77
2024-03-05T18:51:15.350Z,4.23
2024-03-05T18:53:50.037Z,5.07
2024-03-05T18:56:18.627Z,4.20
2024-03-05T18:59:03.721Z,3.27
2024-03-05T19:01:35.644Z,5.57
2024-03-05T19:04:05.681Z,6.63
2024-03-05T19:06:38.200Z,5.47
2024-03-05T19:09:06.830Z,8.27
2024-03-05T19:11:34.994Z,17.93
2024-03-05T19:14:02.634Z,36.20
2024-03-05T19:16:30.669Z,40.47
2024-03-05T19:18:58.870Z,20.80
2024-03-05T19:21:27.754Z,7.10
2024-03-05T19:24:15.948Z,6.03
2024-03-05T19:26:44.612Z,7.37
2024-03-05T19:29:14.181Z,7.90
2024-03-05T19:31:43.642Z,8.70
2024-03-05T19:34:11.857Z,18.57
2024-03-05T19:36:40.750Z,22.53
2024-03-05T19:39:14.043Z,40.90
2024-03-05T19:41:56.185Z,38.43
2024-03-05T19:44:36.105Z,42.10
2024-03-05T19:47:04.965Z,45.10
2024-03-05T19:49:32.877Z,45.73
2024-03-05T19:52:02.800Z,39.20
2024-03-05T19:54:35.888Z,17.47
2024-03-05T19:57:04.708Z,7.03
2024-03-05T19:59:44.928Z,5.03
2024-03-05T20:02:26.849Z,5.23
2024-03-05T20:07:53.396Z,6.00
2024-03-05T20:10:37.736Z,4.03
2024-03-05T20:13:10.207Z,4.60
2024-03-05T20:18:14.264Z,6.57
2024-03-05T20:20:42.688Z,4.57
2024-03-05T20:23:10.570Z,6.00
2024-03-05T20:25:39.753Z,5.53
2024-03-05T20:28:11.250Z,4.30
2024-03-05T20:30:38.861Z,3.13
2024-03-05T20:33:06.830Z,4.70
2024-03-05T20:35:34.481Z,4.30
2024-03-05T20:38:02.359Z,3.23
2024-03-05T20:40:29.966Z,3.80
2024-03-05T20:42:59.150Z,5.43
2024-03-05T20:45:26.869Z,2.70
2024-03-05T20:47:54.477Z,4.77
2024-03-05T20:50:22.240Z,2.67
2024-03-05T20:52:49.932Z,3.00
2024-03-05T20:55:17.642Z,5.27
2024-03-05T20:57:47.888Z,2.50
2024-03-05T21:00:20.417Z,2.03
2024-03-05T21:02:50.336Z,2.70
2024-03-05T21:05:19.624Z,2.53
2024-03-05T21:07:47.867Z,4.13
2024-03-05T21:10:16.668Z,3.87
2024-03-05T21:12:44.309Z,2.23
2024-03-05T21:15:13.630Z,2.60
2024-03-05T21:17:43.184Z,1.90
2024-03-05T21:20:12.880Z,2.80
2024-03-05T21:22:41.728Z,3.43
2024-03-05T21:25:10.317Z,3.23
2024-03-05T21:27:39.479Z,2.93
2024-03-05T21:30:08.980Z,2.63
2024-03-05T21:32:37.570Z,6.23
2024-03-05T21:35:07.310Z,2.37
2024-03-05T21:37:35.600Z,1.83
2024-03-05T21:40:05.959Z,1.87
2024-03-05T21:42:33.706Z,3.30
2024-03-05T21:45:01.603Z,4.83
2024-03-05T21:47:29.426Z,2.17
2024-03-05T21:49:58.426Z,2.60
2024-03-05T21:52:27.513Z,2.50
2024-03-05T21:54:55.320Z,2.37
2024-03-05T21:57:22.941Z,4.40
2024-03-05T21:59:50.575Z,2.30
2024-03-05T22:02:18.400Z,1.97
2024-03-05T22:04:46.155Z,2.33
2024-03-05T22:07:13.892Z,1.87
2024-03-05T22:09:42.880Z,1.80
2024-03-05T22:12:10.712Z,3.20
2024-03-05T22:14:38.357Z,2.90
2024-03-05T22:17:09.896Z,2.70
2024-03-05T22:19:38.552Z,1.83
2024-03-05T22:22:06.252Z,2.17
2024-03-05T22:24:33.927Z,2.73
2024-03-05T22:27:03.235Z,3.67
2024-03-05T22:29:30.846Z,1.93
2024-03-05T22:31:58.536Z,2.00
2024-03-05T22:34:26.985Z,2.10
2024-03-05T22:36:54.623Z,2.07
2024-03-05T22:39:22.398Z,3.40
2024-03-05T22:41:50.075Z,2.17
2024-03-05T22:44:19.208Z,3.30
2024-03-05T22:46:47.052Z,1.93
2024-03-05T22:49:15.356Z,2.20
2024-03-05T22:51:43.115Z,1.50
2024-03-05T22:54:10.703Z,3.40
2024-03-05T22:56:38.429Z,2.33
2024-03-05T22:59:06.129Z,2.03
2024-03-05T23:01:35.192Z,2.00
2024-03-05T23:04:03.405Z,1.40
2024-03-05T23:06:31.149Z,2.87
2024-03-05T23:08:58.797Z,3.37
2024-03-05T23:11:26.505Z,3.97
2024-03-05T23:13:54.209Z,1.50
2024-03-05T23:16:21.891Z,3.67
2024-03-05T23:18:50.928Z,2.53
2024-03-05T23:21:18.838Z,3.53
2024-03-05T23:23:50.442Z,1.73
2024-03-05T23:26:19.045Z,1.50
2024-03-05T23:28:46.874Z,2.83
2024-03-05T23:31:14.448Z,2.37
2024-03-05T23:33:42.048Z,2.60
2024-03-05T23:36:11.051Z,1.87
2024-03-05T23:38:38.888Z,2.80
2024-03-05T23:41:16.613Z,2.13
2024-03-05T23:43:48.700Z,2.97
2024-03-05T23:46:16.395Z,2.77
2024-03-05T23:48:43.995Z,1.93
2024-03-05T23:51:13.163Z,2.47
2024-03-05T23:53:40.857Z,2.10
2024-03-05T23:56:09.230Z,4.77
2024-03-05T23:58:36.904Z,1.93
